Terminal Aerodrome Forecast
Issued by NWS Louisville, KY

Home | Current Version | Previous Version | Text Only | Print | Product List | Glossary On
Versions: 1 2 3 4 5 6 7 8 9 10 11 12 13 14 15 16 17 18 19 20
000
FTUS43 KLMK 260520
TAFSDF
TAF
KSDF 260520Z 2606/2712 VRB04KT P6SM SKC
     FM260900 23005KT P6SM BKN050
     FM261200 29011G17KT P6SM -SHRA BKN035
      TEMPO 2613/2617 5SM -SHRA BKN020
     FM261800 29010KT P6SM SCT070
     FM270000 29006KT P6SM SKC=

USA.gov is the U.S. government's official web portal to all federal, state and local government web resources and services.